Strona główna
METAR-TAF:

METAR-TAF

Lotnisko :

Port lotniczy Cambridge

Cambridge, Anglia

Szerokość geograficzna: 52-12N, Długość geograficzna: 000-11E, wysokość: 15 m

METAR: brakujący

czas: 07:06 (06:06 UTC)

Prognoza

Raport powstał 24 godziny i 15 minut temu, godzina 05:51 UTC
Prognoza ważna od 05 godzina 07 UTC do 05 godzina 15 UTC
Wiatr 10 kt od wschodnio-południowy wschód
Widzialność 10 km lub więcej
Brak chmur poniżej 1500 m i brak chmur cumulonimbus
Prawdopodobieństwo 30% :
Przejściowo
od 05 godzina 11 UTC do 05 godzina 15 UTC
Wiatr 15 kt od południowo-południowy wschód w porywach dochodzący do 25 kt

TAF: EGSC 050551Z 0507/0515 12010KT CAVOK PROB30 TEMPO 0511/0515 16015G25KT

Obserwacja i prognoza pogody dla ponad 4000 lotnisk (raport METAR i TAF).

Dostępne stacje oznaczono żółtymi i czerwonymi punktami na mapie.

Najedź kursorem aby zobaczyć nazwę stacji.

Kliknij aby zobaczyć obserwacje i prognozy pogody.

Aby zmienić mapę: kliknij na zielony przycisk z czarnym krzyżykiem, aby powiększyć; na zielony przycisk z myślnikiem, aby pomniejszyć; na zielone strzałki, aby przejść do map sąsiednich.


METAR-TAF: